地図

経路データ

SID SEASON NUMBER BASIN SUBBASIN NAME ISO_TIME NATURE LAT LON WMO_WIND WMO_PRES WMO_AGENCY TRACK_TYPE DIST2LAND LANDFALL IFLAG USA_AGENCY USA_ATCF_ID USA_LAT USA_LON USA_RECORD USA_STATUS USA_WIND USA_PRES USA_SSHS USA_R34_NE USA_R34_SE USA_R34_SW USA_R34_NW USA_R50_NE USA_R50_SE USA_R50_SW USA_R50_NW USA_R64_NE USA_R64_SE USA_R64_SW USA_R64_NW USA_POCI USA_ROCI USA_RMW USA_EYE TOKYO_LAT TOKYO_LON TOKYO_GRADE TOKYO_WIND TOKYO_PRES TOKYO_R50_DIR TOKYO_R50_LONG TOKYO_R50_SHORT TOKYO_R30_DIR TOKYO_R30_LONG TOKYO_R30_SHORT TOKYO_LAND CMA_LAT CMA_LON CMA_CAT CMA_WIND CMA_PRES HKO_LAT HKO_LON HKO_CAT HKO_WIND HKO_PRES NEWDELHI_LAT NEWDELHI_LON NEWDELHI_GRADE NEWDELHI_WIND NEWDELHI_PRES NEWDELHI_CI NEWDELHI_DP NEWDELHI_POCI REUNION_LAT REUNION_LON REUNION_TYPE REUNION_WIND REUNION_PRES REUNION_TNUM REUNION_CI REUNION_RMW REUNION_R34_NE REUNION_R34_SE REUNION_R34_SW REUNION_R34_NW REUNION_R50_NE REUNION_R50_SE REUNION_R50_SW REUNION_R50_NW REUNION_R64_NE REUNION_R64_SE REUNION_R64_SW REUNION_R64_NW BOM_LAT BOM_LON BOM_TYPE BOM_WIND BOM_PRES BOM_TNUM BOM_CI BOM_RMW BOM_R34_NE BOM_R34_SE BOM_R34_SW BOM_R34_NW BOM_R50_NE BOM_R50_SE BOM_R50_SW BOM_R50_NW BOM_R64_NE BOM_R64_SE BOM_R64_SW BOM_R64_NW BOM_ROCI BOM_POCI BOM_EYE BOM_POS_METHOD BOM_PRES_METHOD NADI_LAT NADI_LON NADI_CAT NADI_WIND NADI_PRES WELLINGTON_LAT WELLINGTON_LON WELLINGTON_WIND WELLINGTON_PRES DS824_LAT DS824_LON DS824_STAGE DS824_WIND DS824_PRES TD9636_LAT TD9636_LON TD9636_STAGE TD9636_WIND TD9636_PRES TD9635_LAT TD9635_LON TD9635_WIND TD9635_PRES TD9635_ROCI NEUMANN_LAT NEUMANN_LON NEUMANN_CLASS NEUMANN_WIND NEUMANN_PRES MLC_LAT MLC_LON MLC_CLASS MLC_WIND MLC_PRES USA_GUST BOM_GUST BOM_GUST_PER REUNION_GUST REUNION_GUST_PER USA_SEAHGT USA_SEARAD_NE USA_SEARAD_SE USA_SEARAD_SW USA_SEARAD_NW STORM_SPEED STORM_DIR
1978257N11298 1978 91 NA CS GRETA 1978-09-13 18:00:00 TS 11.0000 -62.5000 25 hurdat_atl main 33 33 O_____________ hurdat_atl AL161978 11.0000 -62.5000 TD 25 -1 21 284
1978257N11298 1978 91 NA CS GRETA 1978-09-13 21:00:00 TS 11.2510 -63.5496 main 78 78 P_____________ AL161978 11.2510 -63.5496 TD 25 -1 20 284
1978257N11298 1978 91 NA CS GRETA 1978-09-14 00:00:00 TS 11.5000 -64.5000 25 hurdat_atl main 105 105 O_____________ hurdat_atl AL161978 11.5000 -64.5000 TD 25 -1 18 286
1978257N11298 1978 91 NA CS GRETA 1978-09-14 03:00:00 TS 11.7495 -65.2877 main 144 141 P_____________ AL161978 11.7495 -65.2877 TD 27 -1 16 289
1978257N11298 1978 91 NA CS GRETA 1978-09-14 06:00:00 TS 12.0000 -66.0000 30 hurdat_atl main 156 156 O_____________ hurdat_atl AL161978 12.0000 -66.0000 TD 30 -1 15 289
1978257N11298 1978 91 NA CS GRETA 1978-09-14 09:00:00 TS 12.2498 -66.7501 main 179 175 P_____________ AL161978 12.2498 -66.7501 TD 32 -1 16 289
1978257N11298 1978 91 NA CS GRETA 1978-09-14 12:00:00 TS 12.5000 -67.5000 35 hurdat_atl main 175 159 O_____________ hurdat_atl AL161978 12.5000 -67.5000 TS 35 0 16 289
1978257N11298 1978 91 NA CS GRETA 1978-09-14 15:00:00 TS 12.7648 -68.2575 main 165 140 P_____________ AL161978 12.7648 -68.2575 TS 35 0 15 289
1978257N11298 1978 91 NA CS GRETA 1978-09-14 18:00:00 TS 13.0000 -69.0000 35 1004 hurdat_atl main 140 116 O_____________ hurdat_atl AL161978 13.0000 -69.0000 TS 35 1004 0 15 286
1978257N11298 1978 91 NA CS GRETA 1978-09-14 21:00:00 TS 13.1798 -69.7151 main 125 123 P_____________ AL161978 13.1798 -69.7151 TS 37 0 14 282
1978257N11298 1978 91 NA CS GRETA 1978-09-15 00:00:00 TS 13.3000 -70.4000 40 hurdat_atl main 136 124 O_____________ hurdat_atl AL161978 13.3000 -70.4000 TS 40 0 13 278
1978257N11298 1978 91 NA CS GRETA 1978-09-15 03:00:00 TS 13.3647 -71.0502 main 120 111 P_____________ AL161978 13.3647 -71.0502 TS 40 0 13 275
1978257N11298 1978 91 NA CS GRETA 1978-09-15 06:00:00 TS 13.4000 -71.7000 40 hurdat_atl main 111 111 O_____________ hurdat_atl AL161978 13.4000 -71.7000 TS 40 0 13 273
1978257N11298 1978 91 NA CS GRETA 1978-09-15 09:00:00 TS 13.4425 -72.4151 main 130 130 P_____________ AL161978 13.4425 -72.4151 TS 42 0 14 274
1978257N11298 1978 91 NA CS GRETA 1978-09-15 12:00:00 TS 13.5000 -73.1000 45 hurdat_atl main 175 175 O_____________ hurdat_atl AL161978 13.5000 -73.1000 TS 45 0 12 277
1978257N11298 1978 91 NA CS GRETA 1978-09-15 15:00:00 TS 13.5997 -73.6724 main 225 225 P_____________ AL161978 13.5997 -73.6724 TS 47 0 11 281
1978257N11298 1978 91 NA CS GRETA 1978-09-15 18:00:00 TS 13.7000 -74.2000 50 1000 hurdat_atl main 270 270 O_____________ hurdat_atl AL161978 13.7000 -74.2000 TS 50 1000 0 10 279
1978257N11298 1978 91 NA CS GRETA 1978-09-15 21:00:00 TS 13.7647 -74.7275 main 296 296 P_____________ AL161978 13.7647 -74.7275 TS 52 997 0 11 275
1978257N11298 1978 91 NA CS GRETA 1978-09-16 00:00:00 TS 13.8000 -75.3000 55 995 hurdat_atl main 314 314 O_____________ hurdat_atl AL161978 13.8000 -75.3000 TS 55 995 0 12 271
1978257N11298 1978 91 NA CS GRETA 1978-09-16 03:00:00 TS 13.7927 -76.0077 main 335 335 P_____________ AL161978 13.7927 -76.0077 TS 57 993 0 14 270
1978257N11298 1978 91 NA CS GRETA 1978-09-16 06:00:00 TS 13.8000 -76.7000 60 hurdat_atl main 368 368 I_____________ hurdat_atl AL161978 13.8000 -76.7000 TS 60 992 0 12 274
1978257N11298 1978 91 NA CS GRETA 1978-09-16 09:00:00 TS 13.8772 -77.2300 main 403 403 P_____________ AL161978 13.8772 -77.2300 TS 65 990 1 10 282
1978257N11298 1978 91 NA CS GRETA 1978-09-16 12:00:00 TS 14.0000 -77.7000 70 989 hurdat_atl main 417 409 O_____________ hurdat_atl AL161978 14.0000 -77.7000 HU 70 989 1 10 286
1978257N11298 1978 91 NA CS GRETA 1978-09-16 15:00:00 TS 14.1424 -78.2075 main 416 406 P_____________ AL161978 14.1424 -78.2075 HU 72 987 1 10 287
1978257N11298 1978 91 NA CS GRETA 1978-09-16 18:00:00 TS 14.3000 -78.7000 75 hurdat_atl main 412 411 I_____________ hurdat_atl AL161978 14.3000 -78.7000 HU 75 985 1 10 288
1978257N11298 1978 91 NA CS GRETA 1978-09-16 21:00:00 TS 14.4499 -79.1576 main 423 379 P_____________ AL161978 14.4499 -79.1576 HU 77 983 1 9 289
1978257N11298 1978 91 NA CS GRETA 1978-09-17 00:00:00 TS 14.6000 -79.6000 80 982 hurdat_atl main 379 335 O_____________ hurdat_atl AL161978 14.6000 -79.6000 HU 80 982 1 9 289
1978257N11298 1978 91 NA CS GRETA 1978-09-17 03:00:00 TS 14.7498 -80.0351 main 335 279 P_____________ AL161978 14.7498 -80.0351 HU 82 980 1 9 289
1978257N11298 1978 91 NA CS GRETA 1978-09-17 06:00:00 TS 14.9000 -80.5000 85 hurdat_atl main 279 225 I_____________ hurdat_atl AL161978 14.9000 -80.5000 HU 85 978 2 10 287
1978257N11298 1978 91 NA CS GRETA 1978-09-17 09:00:00 TS 15.0500 -81.0425 main 225 162 P_____________ AL161978 15.0500 -81.0425 HU 87 976 2 11 286
1978257N11298 1978 91 NA CS GRETA 1978-09-17 12:00:00 TS 15.2000 -81.6000 90 974 hurdat_atl main 162 112 O_____________ hurdat_atl AL161978 15.2000 -81.6000 HU 90 974 2 11 287
1978257N11298 1978 91 NA CS GRETA 1978-09-17 15:00:00 TS 15.3649 -82.1225 main 116 77 P_____________ AL161978 15.3649 -82.1225 HU 92 971 2 10 287
1978257N11298 1978 91 NA CS GRETA 1978-09-17 18:00:00 TS 15.5000 -82.6000 95 968 hurdat_atl main 77 54 O_____________ hurdat_atl AL161978 15.5000 -82.6000 HU 95 968 2 9 283
1978257N11298 1978 91 NA CS GRETA 1978-09-17 21:00:00 TS 15.5573 -83.0077 main 54 33 P_____________ AL161978 15.5573 -83.0077 HU 102 960 3 8 277
1978257N11298 1978 91 NA CS GRETA 1978-09-18 00:00:00 TS 15.6000 -83.4000 110 952 hurdat_atl main 33 22 O_____________ hurdat_atl AL161978 15.6000 -83.4000 HU 110 952 3 8 278
1978257N11298 1978 91 NA CS GRETA 1978-09-18 03:00:00 TS 15.6622 -83.8128 main 24 0 P_____________ AL161978 15.6622 -83.8128 HU 112 949 3 9 283
1978257N11298 1978 91 NA CS GRETA 1978-09-18 06:00:00 TS 15.8000 -84.3000 115 947 hurdat_atl main 0 0 O_____________ hurdat_atl AL161978 15.8000 -84.3000 HU 115 947 4 12 292
1978257N11298 1978 91 NA CS GRETA 1978-09-18 09:00:00 TS 16.1000 -84.9195 main 22 22 P_____________ AL161978 16.1000 -84.9195 HU 110 952 3 14 296
1978257N11298 1978 91 NA CS GRETA 1978-09-18 12:00:00 TS 16.4000 -85.6000 105 957 hurdat_atl main 55 55 O_____________ hurdat_atl AL161978 16.4000 -85.6000 HU 105 957 3 13 288
1978257N11298 1978 91 NA CS GRETA 1978-09-18 15:00:00 TS 16.5148 -86.2505 main 78 78 P_____________ AL161978 16.5148 -86.2505 HU 102 960 3 13 279
1978257N11298 1978 91 NA CS GRETA 1978-09-18 18:00:00 TS 16.6000 -86.9000 100 964 hurdat_atl main 89 77 O_____________ hurdat_atl AL161978 16.6000 -86.9000 HU 100 964 3 13 283
1978257N11298 1978 91 NA CS GRETA 1978-09-18 21:00:00 TS 16.8149 -87.5572 main 67 0 P_____________ AL161978 16.8149 -87.5572 HU 97 964 3 13 288
1978257N11298 1978 91 NA CS GRETA 1978-09-19 00:00:00 TS 17.0000 -88.2000 95 964 hurdat_atl main 0 0 O_____________ hurdat_atl AL161978 17.0000 -88.2000 HU 95 964 2 12 281
1978257N11298 1978 91 NA NA GRETA 1978-09-19 03:00:00 TS 17.0522 -88.8001 main 0 0 P_____________ AL161978 17.0522 -88.8001 HU 72 1 11 270
1978257N11298 1978 91 NA NA GRETA 1978-09-19 06:00:00 TS 17.0000 -89.4000 50 hurdat_atl main 0 0 O_____________ hurdat_atl AL161978 17.0000 -89.4000 TS 50 0 12 263
1978257N11298 1978 91 NA NA GRETA 1978-09-19 09:00:00 TS 16.9024 -90.0424 main 0 0 P_____________ AL161978 16.9024 -90.0424 TS 40 0 13 256
1978257N11298 1978 91 NA NA GRETA 1978-09-19 12:00:00 TS 16.7000 -90.7000 30 hurdat_atl main 0 0 O_____________ hurdat_atl AL161978 16.7000 -90.7000 TD 30 -1 14 247
1978257N11298 1978 91 NA NA GRETA 1978-09-19 15:00:00 TS 16.3500 -91.3729 main 0 0 P_____________ AL161978 16.3500 -91.3729 TD 30 -1 14 241
1978257N11298 1978 91 NA NA GRETA 1978-09-19 18:00:00 TS 16.0000 -92.0000 30 hurdat_atl main 0 0 O_____________ hurdat_atl AL161978 16.0000 -92.0000 TD 30 -1 12 244
1978257N11298 1978 91 NA NA GRETA 1978-09-19 21:00:00 TS 15.8001 -92.5297 main 0 0 P_____________ AL161978 15.8001 -92.5297 TD 30 -1 10 253
1978257N11298 1978 91 NA NA GRETA 1978-09-20 00:00:00 TS 15.7000 -93.0000 30 hurdat_atl main 0 O_____________ hurdat_atl AL161978 15.7000 -93.0000 TD 30 -1 9 258

IBTrACS Databaseについて

本データベースは、米国NOAAが公開する1842年以降の世界の熱帯低気圧のベストトラックデータアーカイブInternational Best Track Archive for Climate Stewardship (IBTrACS)を、ウェブで閲覧しやすい形式に変換したものです。

最終更新日:2021-10-21